Time Latitude Longitude Accuracy (66% radius in meters) Altitude (meters) Speed (km/hour) Bearing (degrees) Battery (%) GPS flag
12:07:14 57.730750 28.347748 10 57 0.5 213 56 1 delete
12:06:05 57.730839 28.347791 10 55 1 199.60000610352 56 1 delete
12:05:44 57.731111 28.348100 10 60 4 218 56 1 delete
12:05:42 57.731188 28.348217 10 60 4.25 205.89999389648 56 1 delete
12:05:40 57.731274 28.348312 10 60 4 194.39999389648 56 1 delete
12:05:37 57.731386 28.348392 10 63 2.75 201.39999389648 56 1 delete
12:05:34 57.731468 28.348484 10 64 3 199.10000610352 56 1 delete
12:05:28 57.731522 28.348643 10 59 2 225.5 56 1 delete
12:05:25 57.731587 28.348779 10 56 3.25 232.5 56 1 delete
12:05:19 57.731706 28.349175 10 50 2.75 229.80000305176 56 1 delete
12:05:16 57.731764 28.349343 10 49 2.75 239.5 56 1 delete
12:05:06 57.731957 28.349851 10 44 1 200.5 56 1 delete
12:04:57 57.732053 28.349808 10 43 0.5 222.5 56 1 delete
12:04:50 57.732136 28.349912 10 44 1 206.60000610352 56 1 delete
12:04:42 57.732230 28.349924 10 51 3.5 130.80000305176 56 1 delete
12:04:39 57.732317 28.349771 10 54 4 141.10000610352 56 1 delete
12:04:33 57.732554 28.349389 11 64 4 135.89999389648 56 1 delete
12:04:24 57.732722 28.348868 10 64 2.5 68.5 56 1 delete
12:04:19 57.732724 28.348678 10 62 2.25 98.699996948242 56 1 delete
12:04:12 57.732730 28.348504 10 56 0.5 291.20001220703 56 1 delete
12:03:54 57.732641 28.348470 9 59 0.75 313.70001220703 56 1 delete
12:03:36 57.732562 28.348385 10 59 1.75 64.800003051758 56 1 delete
12:03:26 57.732474 28.347871 11 64 1.5 40.099998474121 56 1 delete
12:03:13 57.732332 28.347067 10 67 2 74.699996948242 56 1 delete
12:03:10 57.732303 28.346865 10 69 1.5 74.199996948242 56 1 delete
12:02:38 57.732303 28.346349 10 65 0.75 103.69999694824 56 1 delete
12:02:32 57.732257 28.346202 10 67 1.5 45.5 56 1 delete
12:02:28 57.732187 28.346056 10 66 1.5 21.799999237061 56 1 delete
12:02:24 57.732106 28.345946 10 66 1.5 25.200000762939 56 1 delete
12:02:19 57.732020 28.345882 10 64 1.25 21 56 1 delete
12:02:15 57.731961 28.345738 10 67 0.75 46.099998474121 56 1 delete
12:02:08 57.731885 28.345627 10 67 0.5 10.39999961853 56 1 delete
12:02:03 57.731812 28.345512 10 68 1.5 73.5 56 1 delete
12:01:59 57.731765 28.345342 10 67 2 15.10000038147 56 1 delete
12:01:55 57.731659 28.345267 10 63 2.25 9.6999998092651 56 1 delete
12:01:52 57.731580 28.345183 10 65 2 35.700000762939 56 1 delete
12:01:47 57.731484 28.345066 10 64 2 5 56 1 delete
12:01:43 57.731405 28.344982 10 63 1.75 56.700000762939 56 1 delete
12:01:13 57.731219 28.345086 10 66 1.5 330.29998779297 56 1 delete
12:01:06 57.731054 28.345270 11 54 1 345.29998779297 56 1 delete
12:00:37 57.730549 28.345756 10 58 2.5 310.79998779297 56 1 delete
12:00:31 57.730381 28.345978 10 53 2.75 318.60000610352 56 1 delete
12:00:10 57.730117 28.345803 11 58 3 3.7000000476837 56 1 delete
11:59:59 57.729870 28.345460 10 66 2.25 20 56 1 delete
11:59:51 57.729707 28.345262 10 66 3.5 60.799999237061 56 1 delete
11:59:48 57.729660 28.345045 10 63 3.25 72.300003051758 56 1 delete
11:59:43 57.729584 28.344716 9 59 1.75 89.800003051758 56 1 delete
11:59:39 57.729582 28.344543 9 59 2.25 97.400001525879 56 1 delete
11:59:22 57.729545 28.344339 10 68 0 0 56 1 delete
11:59:18 57.729503 28.344141 11 70 2 25.5 56 1 delete